sensor_id;sensor_type;location;lat;lon;timestamp;P1;durP1;ratioP1;P2;durP2;ratioP2
5869;SDS011;2961;47.702;9.410;2022-10-17T00:00:04;9.67;;;2.83;;
5869;SDS011;2961;47.702;9.410;2022-10-17T00:02:32;2.43;;;2.33;;
5869;SDS011;2961;47.702;9.410;2022-10-17T00:04:58;9.30;;;2.30;;
5869;SDS011;2961;47.702;9.410;2022-10-17T00:07:25;4.43;;;2.80;;
5869;SDS011;2961;47.702;9.410;2022-10-17T00:09:52;2.90;;;2.10;;
5869;SDS011;2961;47.702;9.410;2022-10-17T00:12:19;7.60;;;2.00;;
5869;SDS011;2961;47.702;9.410;2022-10-17T00:14:45;3.93;;;2.20;;
5869;SDS011;2961;47.702;9.410;2022-10-17T00:17:13;5.10;;;2.10;;
5869;SDS011;2961;47.702;9.410;2022-10-17T00:19:40;2.07;;;1.97;;
5869;SDS011;2961;47.702;9.410;2022-10-17T00:22:07;3.07;;;2.40;;
5869;SDS011;2961;47.702;9.410;2022-10-17T00:24:34;2.03;;;1.93;;
5869;SDS011;2961;47.702;9.410;2022-10-17T00:27:01;2.50;;;2.30;;
5869;SDS011;2961;47.702;9.410;2022-10-17T00:29:27;6.93;;;2.53;;
5869;SDS011;2961;47.702;9.410;2022-10-17T00:31:54;6.70;;;2.30;;
5869;SDS011;2961;47.702;9.410;2022-10-17T00:34:22;2.33;;;2.23;;
5869;SDS011;2961;47.702;9.410;2022-10-17T00:36:50;3.37;;;2.70;;
5869;SDS011;2961;47.702;9.410;2022-10-17T00:39:17;3.03;;;2.83;;
5869;SDS011;2961;47.702;9.410;2022-10-17T00:41:44;3.93;;;2.50;;
5869;SDS011;2961;47.702;9.410;2022-10-17T00:47:16;3.53;;;2.30;;
5869;SDS011;2961;47.702;9.410;2022-10-17T00:49:48;2.77;;;2.47;;
5869;SDS011;2961;47.702;9.410;2022-10-17T00:52:16;12.90;;;2.10;;
5869;SDS011;2961;47.702;9.410;2022-10-17T00:54:47;4.83;;;2.03;;
5869;SDS011;2961;47.702;9.410;2022-10-17T00:57:16;3.33;;;1.70;;
5869;SDS011;2961;47.702;9.410;2022-10-17T00:59:44;1.57;;;1.47;;
5869;SDS011;2961;47.702;9.410;2022-10-17T01:02:15;5.77;;;2.00;;
5869;SDS011;2961;47.702;9.410;2022-10-17T01:04:44;2.50;;;2.40;;
5869;SDS011;2961;47.702;9.410;2022-10-17T01:07:13;2.90;;;2.20;;
5869;SDS011;2961;47.702;9.410;2022-10-17T01:09:40;1.77;;;1.67;;
5869;SDS011;2961;47.702;9.410;2022-10-17T01:12:11;2.73;;;2.50;;
5869;SDS011;2961;47.702;9.410;2022-10-17T01:14:45;2.10;;;1.90;;
5869;SDS011;2961;47.702;9.410;2022-10-17T01:17:26;1.93;;;1.83;;
5869;SDS011;2961;47.702;9.410;2022-10-17T01:20:07;2.30;;;2.10;;
5869;SDS011;2961;47.702;9.410;2022-10-17T01:23:01;2.30;;;1.90;;
5869;SDS011;2961;47.702;9.410;2022-10-17T01:25:45;4.10;;;2.33;;
5869;SDS011;2961;47.702;9.410;2022-10-17T01:28:19;9.73;;;2.10;;
5869;SDS011;2961;47.702;9.410;2022-10-17T01:31:06;17.50;;;2.23;;
5869;SDS011;2961;47.702;9.410;2022-10-17T01:33:44;2.40;;;2.17;;
5869;SDS011;2961;47.702;9.410;2022-10-17T01:36:16;5.60;;;2.27;;
5869;SDS011;2961;47.702;9.410;2022-10-17T01:38:54;8.40;;;3.17;;
5869;SDS011;2961;47.702;9.410;2022-10-17T01:41:26;4.67;;;2.50;;
5869;SDS011;2961;47.702;9.410;2022-10-17T01:44:02;5.60;;;2.20;;
5869;SDS011;2961;47.702;9.410;2022-10-17T01:46:35;4.03;;;3.00;;
5869;SDS011;2961;47.702;9.410;2022-10-17T01:49:03;3.27;;;2.30;;
5869;SDS011;2961;47.702;9.410;2022-10-17T01:51:34;1.87;;;1.77;;
5869;SDS011;2961;47.702;9.410;2022-10-17T01:54:05;6.77;;;2.10;;
5869;SDS011;2961;47.702;9.410;2022-10-17T01:56:36;3.70;;;2.67;;
5869;SDS011;2961;47.702;9.410;2022-10-17T01:59:06;8.83;;;4.03;;
5869;SDS011;2961;47.702;9.410;2022-10-17T02:01:38;4.83;;;2.30;;
5869;SDS011;2961;47.702;9.410;2022-10-17T02:04:08;7.13;;;2.70;;
5869;SDS011;2961;47.702;9.410;2022-10-17T02:06:36;2.90;;;2.70;;
5869;SDS011;2961;47.702;9.410;2022-10-17T02:09:13;11.90;;;2.77;;
5869;SDS011;2961;47.702;9.410;2022-10-17T02:11:42;7.10;;;3.03;;
5869;SDS011;2961;47.702;9.410;2022-10-17T02:14:31;7.27;;;2.80;;
5869;SDS011;2961;47.702;9.410;2022-10-17T02:17:12;3.67;;;2.80;;
5869;SDS011;2961;47.702;9.410;2022-10-17T02:19:45;5.37;;;2.60;;
5869;SDS011;2961;47.702;9.410;2022-10-17T02:22:22;3.80;;;2.90;;
5869;SDS011;2961;47.702;9.410;2022-10-17T02:24:57;2.63;;;2.43;;
5869;SDS011;2961;47.702;9.410;2022-10-17T02:27:31;2.43;;;2.20;;
5869;SDS011;2961;47.702;9.410;2022-10-17T02:30:04;4.00;;;2.40;;
5869;SDS011;2961;47.702;9.410;2022-10-17T02:32:39;2.53;;;2.43;;
5869;SDS011;2961;47.702;9.410;2022-10-17T02:35:12;2.47;;;2.30;;
5869;SDS011;2961;47.702;9.410;2022-10-17T02:37:41;8.87;;;2.83;;
5869;SDS011;2961;47.702;9.410;2022-10-17T02:40:11;2.50;;;2.40;;
5869;SDS011;2961;47.702;9.410;2022-10-17T02:42:39;8.80;;;2.07;;
5869;SDS011;2961;47.702;9.410;2022-10-17T02:45:09;2.23;;;2.07;;
5869;SDS011;2961;47.702;9.410;2022-10-17T02:47:42;2.53;;;2.33;;
5869;SDS011;2961;47.702;9.410;2022-10-17T02:50:15;8.20;;;2.30;;
5869;SDS011;2961;47.702;9.410;2022-10-17T02:52:44;11.33;;;3.13;;
5869;SDS011;2961;47.702;9.410;2022-10-17T02:55:16;18.43;;;3.20;;
5869;SDS011;2961;47.702;9.410;2022-10-17T02:57:46;2.87;;;2.63;;
5869;SDS011;2961;47.702;9.410;2022-10-17T03:00:16;7.23;;;2.50;;
5869;SDS011;2961;47.702;9.410;2022-10-17T03:02:46;5.53;;;2.50;;
5869;SDS011;2961;47.702;9.410;2022-10-17T03:05:14;4.60;;;3.37;;
5869;SDS011;2961;47.702;9.410;2022-10-17T03:07:42;4.43;;;2.87;;
5869;SDS011;2961;47.702;9.410;2022-10-17T03:10:09;2.17;;;2.07;;
5869;SDS011;2961;47.702;9.410;2022-10-17T03:12:36;2.97;;;2.50;;
5869;SDS011;2961;47.702;9.410;2022-10-17T03:15:04;10.33;;;2.07;;
5869;SDS011;2961;47.702;9.410;2022-10-17T03:17:31;5.00;;;2.57;;
5869;SDS011;2961;47.702;9.410;2022-10-17T03:20:00;2.23;;;2.13;;
5869;SDS011;2961;47.702;9.410;2022-10-17T03:22:26;2.13;;;2.03;;
5869;SDS011;2961;47.702;9.410;2022-10-17T03:24:53;2.03;;;1.93;;
5869;SDS011;2961;47.702;9.410;2022-10-17T03:27:20;2.70;;;2.60;;
5869;SDS011;2961;47.702;9.410;2022-10-17T03:29:47;4.83;;;2.10;;
5869;SDS011;2961;47.702;9.410;2022-10-17T03:32:13;2.27;;;2.07;;
5869;SDS011;2961;47.702;9.410;2022-10-17T03:34:40;1.80;;;1.70;;
5869;SDS011;2961;47.702;9.410;2022-10-17T03:37:08;2.67;;;2.43;;
5869;SDS011;2961;47.702;9.410;2022-10-17T03:39:35;2.20;;;2.10;;
5869;SDS011;2961;47.702;9.410;2022-10-17T03:42:02;4.23;;;2.53;;
5869;SDS011;2961;47.702;9.410;2022-10-17T03:44:29;5.43;;;2.03;;
5869;SDS011;2961;47.702;9.410;2022-10-17T03:46:56;3.20;;;2.27;;
5869;SDS011;2961;47.702;9.410;2022-10-17T03:49:23;3.13;;;2.20;;
5869;SDS011;2961;47.702;9.410;2022-10-17T03:51:50;7.20;;;2.40;;
5869;SDS011;2961;47.702;9.410;2022-10-17T03:54:18;2.47;;;2.20;;
5869;SDS011;2961;47.702;9.410;2022-10-17T03:56:44;2.60;;;2.50;;
5869;SDS011;2961;47.702;9.410;2022-10-17T03:59:11;2.63;;;2.20;;
5869;SDS011;2961;47.702;9.410;2022-10-17T04:01:39;2.37;;;2.17;;
5869;SDS011;2961;47.702;9.410;2022-10-17T04:04:06;10.70;;;2.80;;
5869;SDS011;2961;47.702;9.410;2022-10-17T04:06:33;2.20;;;2.10;;
5869;SDS011;2961;47.702;9.410;2022-10-17T04:08:59;2.50;;;1.80;;
5869;SDS011;2961;47.702;9.410;2022-10-17T04:11:28;8.90;;;1.83;;
5869;SDS011;2961;47.702;9.410;2022-10-17T04:13:55;1.63;;;1.50;;
5869;SDS011;2961;47.702;9.410;2022-10-17T04:16:23;3.97;;;2.17;;
5869;SDS011;2961;47.702;9.410;2022-10-17T04:18:51;3.10;;;2.40;;
5869;SDS011;2961;47.702;9.410;2022-10-17T04:21:19;1.87;;;1.77;;
5869;SDS011;2961;47.702;9.410;2022-10-17T04:23:46;1.70;;;1.70;;
5869;SDS011;2961;47.702;9.410;2022-10-17T04:26:13;8.30;;;2.50;;
5869;SDS011;2961;47.702;9.410;2022-10-17T04:28:41;3.10;;;2.57;;
5869;SDS011;2961;47.702;9.410;2022-10-17T04:31:09;2.00;;;1.90;;
5869;SDS011;2961;47.702;9.410;2022-10-17T04:33:37;5.73;;;2.50;;
5869;SDS011;2961;47.702;9.410;2022-10-17T04:36:05;5.90;;;2.37;;
5869;SDS011;2961;47.702;9.410;2022-10-17T04:38:33;3.03;;;2.17;;
5869;SDS011;2961;47.702;9.410;2022-10-17T04:41:00;2.43;;;1.93;;
5869;SDS011;2961;47.702;9.410;2022-10-17T04:43:29;4.50;;;2.00;;
5869;SDS011;2961;47.702;9.410;2022-10-17T04:45:57;7.60;;;2.50;;
5869;SDS011;2961;47.702;9.410;2022-10-17T04:48:24;3.43;;;1.70;;
5869;SDS011;2961;47.702;9.410;2022-10-17T04:51:05;2.50;;;2.30;;
5869;SDS011;2961;47.702;9.410;2022-10-17T04:53:33;2.07;;;1.93;;
5869;SDS011;2961;47.702;9.410;2022-10-17T04:56:06;2.70;;;2.50;;
5869;SDS011;2961;47.702;9.410;2022-10-17T04:58:33;2.30;;;2.20;;
5869;SDS011;2961;47.702;9.410;2022-10-17T05:01:04;5.33;;;2.77;;
5869;SDS011;2961;47.702;9.410;2022-10-17T05:03:31;3.40;;;2.30;;
5869;SDS011;2961;47.702;9.410;2022-10-17T05:06:00;2.40;;;2.17;;
5869;SDS011;2961;47.702;9.410;2022-10-17T05:08:29;7.13;;;2.30;;
5869;SDS011;2961;47.702;9.410;2022-10-17T05:10:55;11.67;;;2.33;;
5869;SDS011;2961;47.702;9.410;2022-10-17T05:13:22;14.50;;;2.80;;
5869;SDS011;2961;47.702;9.410;2022-10-17T05:15:49;3.53;;;1.80;;
5869;SDS011;2961;47.702;9.410;2022-10-17T05:18:17;7.30;;;2.33;;
5869;SDS011;2961;47.702;9.410;2022-10-17T05:20:44;6.63;;;2.80;;
5869;SDS011;2961;47.702;9.410;2022-10-17T05:23:11;5.50;;;1.70;;
5869;SDS011;2961;47.702;9.410;2022-10-17T05:25:37;5.00;;;2.37;;
5869;SDS011;2961;47.702;9.410;2022-10-17T05:28:04;5.33;;;2.47;;
5869;SDS011;2961;47.702;9.410;2022-10-17T05:30:31;2.93;;;1.97;;
5869;SDS011;2961;47.702;9.410;2022-10-17T05:32:58;1.80;;;1.70;;
5869;SDS011;2961;47.702;9.410;2022-10-17T05:35:26;2.63;;;1.80;;
5869;SDS011;2961;47.702;9.410;2022-10-17T05:37:53;9.50;;;2.00;;
5869;SDS011;2961;47.702;9.410;2022-10-17T05:40:19;7.80;;;2.30;;
5869;SDS011;2961;47.702;9.410;2022-10-17T05:42:46;6.70;;;1.83;;
5869;SDS011;2961;47.702;9.410;2022-10-17T05:45:14;2.43;;;2.23;;
5869;SDS011;2961;47.702;9.410;2022-10-17T05:47:41;3.27;;;2.27;;
5869;SDS011;2961;47.702;9.410;2022-10-17T05:50:07;5.57;;;2.27;;
5869;SDS011;2961;47.702;9.410;2022-10-17T05:52:36;2.07;;;1.87;;
5869;SDS011;2961;47.702;9.410;2022-10-17T05:55:03;4.00;;;2.20;;
5869;SDS011;2961;47.702;9.410;2022-10-17T05:57:31;5.00;;;2.20;;
5869;SDS011;2961;47.702;9.410;2022-10-17T05:59:58;2.80;;;2.17;;
5869;SDS011;2961;47.702;9.410;2022-10-17T06:02:24;3.33;;;1.80;;
5869;SDS011;2961;47.702;9.410;2022-10-17T06:04:51;2.47;;;2.27;;
5869;SDS011;2961;47.702;9.410;2022-10-17T06:07:18;7.67;;;2.40;;
5869;SDS011;2961;47.702;9.410;2022-10-17T06:09:47;5.40;;;3.33;;
5869;SDS011;2961;47.702;9.410;2022-10-17T06:12:13;3.17;;;2.53;;
5869;SDS011;2961;47.702;9.410;2022-10-17T06:14:40;8.20;;;2.80;;
5869;SDS011;2961;47.702;9.410;2022-10-17T06:17:07;4.13;;;2.23;;
5869;SDS011;2961;47.702;9.410;2022-10-17T06:19:34;3.50;;;2.53;;
5869;SDS011;2961;47.702;9.410;2022-10-17T06:22:00;3.13;;;2.90;;
5869;SDS011;2961;47.702;9.410;2022-10-17T06:24:27;2.95;;;2.75;;
5869;SDS011;2961;47.702;9.410;2022-10-17T06:26:55;6.03;;;2.50;;
5869;SDS011;2961;47.702;9.410;2022-10-17T06:29:23;3.10;;;2.90;;
5869;SDS011;2961;47.702;9.410;2022-10-17T06:31:49;8.67;;;2.87;;
5869;SDS011;2961;47.702;9.410;2022-10-17T06:34:16;2.63;;;2.30;;
5869;SDS011;2961;47.702;9.410;2022-10-17T06:36:43;3.07;;;2.70;;
5869;SDS011;2961;47.702;9.410;2022-10-17T06:39:10;2.93;;;2.83;;
5869;SDS011;2961;47.702;9.410;2022-10-17T06:41:37;2.50;;;2.40;;
5869;SDS011;2961;47.702;9.410;2022-10-17T06:44:06;4.80;;;2.70;;
5869;SDS011;2961;47.702;9.410;2022-10-17T06:46:35;3.43;;;2.60;;
5869;SDS011;2961;47.702;9.410;2022-10-17T06:49:02;3.70;;;3.50;;
5869;SDS011;2961;47.702;9.410;2022-10-17T06:51:29;13.67;;;4.33;;
5869;SDS011;2961;47.702;9.410;2022-10-17T06:53:56;5.07;;;4.57;;
5869;SDS011;2961;47.702;9.410;2022-10-17T06:56:23;7.73;;;4.33;;
5869;SDS011;2961;47.702;9.410;2022-10-17T06:58:50;7.30;;;4.60;;
5869;SDS011;2961;47.702;9.410;2022-10-17T07:01:19;9.53;;;4.13;;
5869;SDS011;2961;47.702;9.410;2022-10-17T07:03:46;4.83;;;4.20;;
5869;SDS011;2961;47.702;9.410;2022-10-17T07:06:14;6.90;;;4.03;;
5869;SDS011;2961;47.702;9.410;2022-10-17T07:08:42;10.40;;;4.93;;
5869;SDS011;2961;47.702;9.410;2022-10-17T07:11:10;11.83;;;4.63;;
5869;SDS011;2961;47.702;9.410;2022-10-17T07:13:37;4.63;;;4.23;;
5869;SDS011;2961;47.702;9.410;2022-10-17T07:16:04;8.77;;;5.00;;
5869;SDS011;2961;47.702;9.410;2022-10-17T07:18:33;4.10;;;3.77;;
5869;SDS011;2961;47.702;9.410;2022-10-17T07:21:00;5.00;;;4.00;;
5869;SDS011;2961;47.702;9.410;2022-10-17T07:23:27;5.73;;;4.20;;
5869;SDS011;2961;47.702;9.410;2022-10-17T07:25:58;4.83;;;4.13;;
5869;SDS011;2961;47.702;9.410;2022-10-17T07:28:25;11.90;;;4.70;;
5869;SDS011;2961;47.702;9.410;2022-10-17T07:30:52;9.20;;;4.47;;
5869;SDS011;2961;47.702;9.410;2022-10-17T07:33:19;4.80;;;3.87;;
5869;SDS011;2961;47.702;9.410;2022-10-17T07:35:47;3.40;;;3.13;;
5869;SDS011;2961;47.702;9.410;2022-10-17T07:38:16;4.00;;;3.60;;
5869;SDS011;2961;47.702;9.410;2022-10-17T07:40:42;4.00;;;3.63;;
5869;SDS011;2961;47.702;9.410;2022-10-17T07:43:09;4.73;;;4.40;;
5869;SDS011;2961;47.702;9.410;2022-10-17T07:45:36;5.00;;;4.60;;
5869;SDS011;2961;47.702;9.410;2022-10-17T07:48:03;7.70;;;5.30;;
5869;SDS011;2961;47.702;9.410;2022-10-17T07:50:30;5.83;;;5.27;;
5869;SDS011;2961;47.702;9.410;2022-10-17T07:52:58;15.33;;;6.00;;
5869;SDS011;2961;47.702;9.410;2022-10-17T07:55:25;5.50;;;5.00;;
5869;SDS011;2961;47.702;9.410;2022-10-17T07:57:52;6.10;;;5.20;;
5869;SDS011;2961;47.702;9.410;2022-10-17T08:00:18;10.60;;;4.70;;
5869;SDS011;2961;47.702;9.410;2022-10-17T08:02:45;6.20;;;4.80;;
5869;SDS011;2961;47.702;9.410;2022-10-17T08:05:12;6.07;;;5.47;;
5869;SDS011;2961;47.702;9.410;2022-10-17T08:07:39;5.63;;;5.17;;
5869;SDS011;2961;47.702;9.410;2022-10-17T08:10:07;6.03;;;5.00;;
5869;SDS011;2961;47.702;9.410;2022-10-17T08:12:36;9.07;;;5.83;;
5869;SDS011;2961;47.702;9.410;2022-10-17T08:15:03;6.63;;;6.03;;
5869;SDS011;2961;47.702;9.410;2022-10-17T08:17:32;6.00;;;5.10;;
5869;SDS011;2961;47.702;9.410;2022-10-17T08:20:00;7.40;;;6.70;;
5869;SDS011;2961;47.702;9.410;2022-10-17T08:22:27;7.33;;;6.00;;
5869;SDS011;2961;47.702;9.410;2022-10-17T08:24:53;7.90;;;6.77;;
5869;SDS011;2961;47.702;9.410;2022-10-17T08:27:21;7.03;;;6.40;;
5869;SDS011;2961;47.702;9.410;2022-10-17T08:29:49;6.43;;;5.67;;
5869;SDS011;2961;47.702;9.410;2022-10-17T08:32:17;7.90;;;5.93;;
5869;SDS011;2961;47.702;9.410;2022-10-17T08:34:44;8.47;;;6.83;;
5869;SDS011;2961;47.702;9.410;2022-10-17T08:37:11;7.03;;;6.37;;
5869;SDS011;2961;47.702;9.410;2022-10-17T08:39:38;7.70;;;6.90;;
5869;SDS011;2961;47.702;9.410;2022-10-17T08:42:13;6.90;;;6.20;;
5869;SDS011;2961;47.702;9.410;2022-10-17T08:45:08;8.40;;;6.50;;
5869;SDS011;2961;47.702;9.410;2022-10-17T08:47:40;10.43;;;7.20;;
5869;SDS011;2961;47.702;9.410;2022-10-17T08:50:10;15.60;;;7.97;;
5869;SDS011;2961;47.702;9.410;2022-10-17T08:52:42;13.33;;;7.00;;
5869;SDS011;2961;47.702;9.410;2022-10-17T08:55:14;10.50;;;6.30;;
5869;SDS011;2961;47.702;9.410;2022-10-17T08:57:42;6.87;;;6.27;;
5869;SDS011;2961;47.702;9.410;2022-10-17T09:00:14;9.57;;;5.77;;
5869;SDS011;2961;47.702;9.410;2022-10-17T09:02:49;8.20;;;6.80;;
5869;SDS011;2961;47.702;9.410;2022-10-17T09:05:29;9.33;;;6.57;;
5869;SDS011;2961;47.702;9.410;2022-10-17T09:08:07;6.43;;;5.93;;
5869;SDS011;2961;47.702;9.410;2022-10-17T09:10:46;12.77;;;7.13;;
5869;SDS011;2961;47.702;9.410;2022-10-17T09:13:24;6.63;;;6.03;;
5869;SDS011;2961;47.702;9.410;2022-10-17T09:16:06;14.43;;;6.07;;
5869;SDS011;2961;47.702;9.410;2022-10-17T09:18:42;7.33;;;6.40;;
5869;SDS011;2961;47.702;9.410;2022-10-17T09:21:16;6.87;;;5.03;;
5869;SDS011;2961;47.702;9.410;2022-10-17T09:23:46;8.43;;;5.57;;
5869;SDS011;2961;47.702;9.410;2022-10-17T09:26:16;6.57;;;5.30;;
5869;SDS011;2961;47.702;9.410;2022-10-17T09:28:43;5.60;;;4.60;;
5869;SDS011;2961;47.702;9.410;2022-10-17T09:31:20;6.43;;;5.60;;
5869;SDS011;2961;47.702;9.410;2022-10-17T09:33:51;6.20;;;5.30;;
5869;SDS011;2961;47.702;9.410;2022-10-17T09:36:22;12.07;;;5.93;;
5869;SDS011;2961;47.702;9.410;2022-10-17T09:38:52;12.20;;;6.90;;
5869;SDS011;2961;47.702;9.410;2022-10-17T09:41:21;24.00;;;6.27;;
5869;SDS011;2961;47.702;9.410;2022-10-17T09:43:51;12.63;;;6.20;;
5869;SDS011;2961;47.702;9.410;2022-10-17T09:46:22;7.00;;;6.30;;
5869;SDS011;2961;47.702;9.410;2022-10-17T09:48:54;12.57;;;6.70;;
5869;SDS011;2961;47.702;9.410;2022-10-17T09:51:25;11.37;;;5.53;;
5869;SDS011;2961;47.702;9.410;2022-10-17T09:53:53;6.70;;;5.70;;
5869;SDS011;2961;47.702;9.410;2022-10-17T09:56:21;7.93;;;5.63;;
5869;SDS011;2961;47.702;9.410;2022-10-17T09:58:49;5.90;;;5.47;;
5869;SDS011;2961;47.702;9.410;2022-10-17T10:01:19;6.83;;;6.10;;
5869;SDS011;2961;47.702;9.410;2022-10-17T10:04:06;9.73;;;6.50;;
5869;SDS011;2961;47.702;9.410;2022-10-17T10:06:34;8.20;;;6.07;;
5869;SDS011;2961;47.702;9.410;2022-10-17T10:09:01;8.27;;;6.67;;
5869;SDS011;2961;47.702;9.410;2022-10-17T10:11:44;7.77;;;6.63;;
5869;SDS011;2961;47.702;9.410;2022-10-17T10:14:14;7.40;;;6.70;;
5869;SDS011;2961;47.702;9.410;2022-10-17T10:16:47;7.57;;;6.90;;
5869;SDS011;2961;47.702;9.410;2022-10-17T10:19:19;7.07;;;6.47;;
5869;SDS011;2961;47.702;9.410;2022-10-17T10:21:53;7.83;;;7.00;;
5869;SDS011;2961;47.702;9.410;2022-10-17T10:24:21;7.20;;;6.30;;
5869;SDS011;2961;47.702;9.410;2022-10-17T10:26:49;8.13;;;5.83;;
5869;SDS011;2961;47.702;9.410;2022-10-17T10:29:20;5.53;;;5.10;;
5869;SDS011;2961;47.702;9.410;2022-10-17T10:31:54;7.45;;;6.22;;
5869;SDS011;2961;47.702;9.410;2022-10-17T10:34:22;6.88;;;6.18;;
5869;SDS011;2961;47.702;9.410;2022-10-17T10:36:57;6.10;;;5.63;;
5869;SDS011;2961;47.702;9.410;2022-10-17T10:39:29;6.87;;;5.07;;
5869;SDS011;2961;47.702;9.410;2022-10-17T10:42:00;6.10;;;5.30;;
5869;SDS011;2961;47.702;9.410;2022-10-17T10:44:30;5.70;;;5.20;;
5869;SDS011;2961;47.702;9.410;2022-10-17T10:49:50;7.33;;;5.27;;
5869;SDS011;2961;47.702;9.410;2022-10-17T10:52:32;4.40;;;4.10;;
5869;SDS011;2961;47.702;9.410;2022-10-17T10:55:13;5.20;;;4.30;;
5869;SDS011;2961;47.702;9.410;2022-10-17T10:57:46;7.63;;;4.67;;
5869;SDS011;2961;47.702;9.410;2022-10-17T11:00:15;4.10;;;3.80;;
5869;SDS011;2961;47.702;9.410;2022-10-17T11:02:50;4.30;;;3.90;;
5869;SDS011;2961;47.702;9.410;2022-10-17T11:05:24;4.67;;;4.27;;
5869;SDS011;2961;47.702;9.410;2022-10-17T11:08:02;3.83;;;3.53;;
5869;SDS011;2961;47.702;9.410;2022-10-17T11:10:38;4.20;;;4.00;;
5869;SDS011;2961;47.702;9.410;2022-10-17T11:13:10;7.50;;;4.63;;
5869;SDS011;2961;47.702;9.410;2022-10-17T11:15:41;3.90;;;3.67;;
5869;SDS011;2961;47.702;9.410;2022-10-17T11:18:32;5.47;;;4.20;;
5869;SDS011;2961;47.702;9.410;2022-10-17T11:21:05;3.83;;;3.10;;
5869;SDS011;2961;47.702;9.410;2022-10-17T11:23:39;5.60;;;3.90;;
5869;SDS011;2961;47.702;9.410;2022-10-17T11:26:11;3.17;;;2.87;;
5869;SDS011;2961;47.702;9.410;2022-10-17T11:28:41;8.27;;;2.90;;
5869;SDS011;2961;47.702;9.410;2022-10-17T11:31:08;5.30;;;3.17;;
5869;SDS011;2961;47.702;9.410;2022-10-17T11:33:40;11.60;;;3.80;;
5869;SDS011;2961;47.702;9.410;2022-10-17T11:36:11;9.03;;;3.90;;
5869;SDS011;2961;47.702;9.410;2022-10-17T11:38:42;3.63;;;3.33;;
5869;SDS011;2961;47.702;9.410;2022-10-17T11:41:14;3.80;;;2.87;;
5869;SDS011;2961;47.702;9.410;2022-10-17T11:43:46;3.00;;;2.90;;
5869;SDS011;2961;47.702;9.410;2022-10-17T11:46:17;7.57;;;3.40;;
5869;SDS011;2961;47.702;9.410;2022-10-17T11:48:53;6.70;;;3.00;;
5869;SDS011;2961;47.702;9.410;2022-10-17T11:51:24;3.80;;;3.50;;
5869;SDS011;2961;47.702;9.410;2022-10-17T11:53:53;3.10;;;3.00;;
5869;SDS011;2961;47.702;9.410;2022-10-17T11:56:25;4.60;;;3.30;;
5869;SDS011;2961;47.702;9.410;2022-10-17T11:58:59;4.33;;;3.10;;
5869;SDS011;2961;47.702;9.410;2022-10-17T12:01:40;10.73;;;4.80;;
5869;SDS011;2961;47.702;9.410;2022-10-17T12:04:18;15.57;;;7.63;;
5869;SDS011;2961;47.702;9.410;2022-10-17T12:06:56;4.93;;;4.35;;
5869;SDS011;2961;47.702;9.410;2022-10-17T12:09:37;3.17;;;2.97;;
5869;SDS011;2961;47.702;9.410;2022-10-17T12:12:11;4.03;;;3.67;;
5869;SDS011;2961;47.702;9.410;2022-10-17T12:14:50;6.40;;;3.80;;
5869;SDS011;2961;47.702;9.410;2022-10-17T12:23:02;7.30;;;3.73;;
5869;SDS011;2961;47.702;9.410;2022-10-17T12:25:47;10.03;;;4.13;;
5869;SDS011;2961;47.702;9.410;2022-10-17T12:28:17;9.40;;;3.63;;
5869;SDS011;2961;47.702;9.410;2022-10-17T12:30:52;8.37;;;3.57;;
5869;SDS011;2961;47.702;9.410;2022-10-17T12:33:29;5.07;;;3.80;;
5869;SDS011;2961;47.702;9.410;2022-10-17T12:42:30;5.20;;;4.30;;
5869;SDS011;2961;47.702;9.410;2022-10-17T12:44:59;6.27;;;3.50;;
5869;SDS011;2961;47.702;9.410;2022-10-17T12:47:26;7.50;;;2.80;;
5869;SDS011;2961;47.702;9.410;2022-10-17T12:50:01;7.07;;;2.70;;
5869;SDS011;2961;47.702;9.410;2022-10-17T12:55:22;6.03;;;3.03;;
5869;SDS011;2961;47.702;9.410;2022-10-17T12:57:53;11.03;;;3.37;;
5869;SDS011;2961;47.702;9.410;2022-10-17T13:00:26;7.77;;;2.73;;
5869;SDS011;2961;47.702;9.410;2022-10-17T13:03:01;4.20;;;2.83;;
5869;SDS011;2961;47.702;9.410;2022-10-17T13:05:32;6.17;;;3.20;;
5869;SDS011;2961;47.702;9.410;2022-10-17T13:08:01;4.13;;;3.80;;
5869;SDS011;2961;47.702;9.410;2022-10-17T13:10:30;3.90;;;3.00;;
5869;SDS011;2961;47.702;9.410;2022-10-17T13:13:03;10.50;;;4.07;;
5869;SDS011;2961;47.702;9.410;2022-10-17T13:15:33;10.53;;;2.90;;
5869;SDS011;2961;47.702;9.410;2022-10-17T13:18:02;5.63;;;2.20;;
5869;SDS011;2961;47.702;9.410;2022-10-17T13:20:29;4.77;;;3.63;;
5869;SDS011;2961;47.702;9.410;2022-10-17T13:22:57;5.87;;;2.60;;
5869;SDS011;2961;47.702;9.410;2022-10-17T13:25:25;4.57;;;2.23;;
5869;SDS011;2961;47.702;9.410;2022-10-17T13:28:03;2.80;;;2.70;;
5869;SDS011;2961;47.702;9.410;2022-10-17T13:30:36;3.03;;;2.83;;
5869;SDS011;2961;47.702;9.410;2022-10-17T13:33:15;4.40;;;3.00;;
5869;SDS011;2961;47.702;9.410;2022-10-17T13:35:52;6.03;;;2.30;;
5869;SDS011;2961;47.702;9.410;2022-10-17T13:38:20;3.53;;;2.83;;
5869;SDS011;2961;47.702;9.410;2022-10-17T13:40:52;9.70;;;3.28;;
5869;SDS011;2961;47.702;9.410;2022-10-17T13:43:21;3.33;;;3.03;;
5869;SDS011;2961;47.702;9.410;2022-10-17T13:45:50;3.10;;;2.90;;
5869;SDS011;2961;47.702;9.410;2022-10-17T13:48:18;2.80;;;2.70;;
5869;SDS011;2961;47.702;9.410;2022-10-17T13:50:49;7.20;;;3.37;;
5869;SDS011;2961;47.702;9.410;2022-10-17T13:53:19;3.43;;;3.23;;
5869;SDS011;2961;47.702;9.410;2022-10-17T13:55:55;3.60;;;3.20;;
5869;SDS011;2961;47.702;9.410;2022-10-17T13:58:25;4.17;;;3.83;;
5869;SDS011;2961;47.702;9.410;2022-10-17T14:00:55;3.53;;;3.13;;
5869;SDS011;2961;47.702;9.410;2022-10-17T14:03:22;4.30;;;4.00;;
5869;SDS011;2961;47.702;9.410;2022-10-17T14:06:11;8.10;;;5.43;;
5869;SDS011;2961;47.702;9.410;2022-10-17T14:08:55;7.40;;;4.60;;
5869;SDS011;2961;47.702;9.410;2022-10-17T14:11:26;15.60;;;6.07;;
5869;SDS011;2961;47.702;9.410;2022-10-17T14:14:02;6.83;;;5.77;;
5869;SDS011;2961;47.702;9.410;2022-10-17T14:16:35;9.10;;;6.37;;
5869;SDS011;2961;47.702;9.410;2022-10-17T14:19:04;6.60;;;6.00;;
5869;SDS011;2961;47.702;9.410;2022-10-17T14:21:38;5.97;;;5.50;;
5869;SDS011;2961;47.702;9.410;2022-10-17T14:24:12;8.50;;;5.70;;
5869;SDS011;2961;47.702;9.410;2022-10-17T14:26:52;6.80;;;6.17;;
5869;SDS011;2961;47.702;9.410;2022-10-17T14:29:25;8.20;;;5.60;;
5869;SDS011;2961;47.702;9.410;2022-10-17T14:31:56;7.47;;;5.93;;
5869;SDS011;2961;47.702;9.410;2022-10-17T14:34:26;7.27;;;6.60;;
5869;SDS011;2961;47.702;9.410;2022-10-17T14:36:57;7.43;;;5.57;;
5869;SDS011;2961;47.702;9.410;2022-10-17T14:39:25;7.87;;;5.47;;
5869;SDS011;2961;47.702;9.410;2022-10-17T14:41:53;5.60;;;5.17;;
5869;SDS011;2961;47.702;9.410;2022-10-17T14:44:21;9.20;;;6.17;;
5869;SDS011;2961;47.702;9.410;2022-10-17T14:46:56;6.67;;;5.93;;
5869;SDS011;2961;47.702;9.410;2022-10-17T14:49:27;9.33;;;6.60;;
5869;SDS011;2961;47.702;9.410;2022-10-17T14:54:51;7.07;;;4.73;;
5869;SDS011;2961;47.702;9.410;2022-10-17T14:57:21;8.33;;;5.80;;
5869;SDS011;2961;47.702;9.410;2022-10-17T14:59:51;6.53;;;5.00;;
5869;SDS011;2961;47.702;9.410;2022-10-17T15:02:18;7.20;;;6.50;;
5869;SDS011;2961;47.702;9.410;2022-10-17T15:04:45;6.33;;;5.73;;
5869;SDS011;2961;47.702;9.410;2022-10-17T15:07:12;7.27;;;5.70;;
5869;SDS011;2961;47.702;9.410;2022-10-17T15:09:40;14.60;;;6.07;;
5869;SDS011;2961;47.702;9.410;2022-10-17T15:12:11;6.63;;;6.00;;
5869;SDS011;2961;47.702;9.410;2022-10-17T15:14:40;13.33;;;5.77;;
5869;SDS011;2961;47.702;9.410;2022-10-17T15:17:10;5.80;;;5.30;;
5869;SDS011;2961;47.702;9.410;2022-10-17T15:19:39;7.97;;;5.53;;
5869;SDS011;2961;47.702;9.410;2022-10-17T15:22:06;6.17;;;5.57;;
5869;SDS011;2961;47.702;9.410;2022-10-17T15:24:33;8.37;;;6.43;;
5869;SDS011;2961;47.702;9.410;2022-10-17T15:27:00;8.63;;;7.00;;
5869;SDS011;2961;47.702;9.410;2022-10-17T15:29:26;9.30;;;5.77;;
5869;SDS011;2961;47.702;9.410;2022-10-17T15:31:53;10.43;;;7.00;;
5869;SDS011;2961;47.702;9.410;2022-10-17T15:34:21;7.80;;;6.93;;
5869;SDS011;2961;47.702;9.410;2022-10-17T15:36:49;8.57;;;6.03;;
5869;SDS011;2961;47.702;9.410;2022-10-17T15:39:16;7.80;;;6.20;;
5869;SDS011;2961;47.702;9.410;2022-10-17T15:41:43;6.73;;;5.20;;
5869;SDS011;2961;47.702;9.410;2022-10-17T15:44:12;8.47;;;6.10;;
5869;SDS011;2961;47.702;9.410;2022-10-17T15:46:39;6.80;;;6.20;;
5869;SDS011;2961;47.702;9.410;2022-10-17T15:49:09;9.10;;;6.03;;
5869;SDS011;2961;47.702;9.410;2022-10-17T15:51:39;6.27;;;5.77;;
5869;SDS011;2961;47.702;9.410;2022-10-17T15:54:06;8.13;;;6.07;;
5869;SDS011;2961;47.702;9.410;2022-10-17T15:56:34;6.10;;;5.47;;